HVK374 EDDS-EDDL
Flight info
| Callsign | HVK374 |
|---|---|
| Flight time | N/A |
| Altitude | 22000 |
| Route | TAGIK4B TAGIK Z3 ABUMO N850 GISEM Z505 ARPEG Z850 ADEMI T854 DOMUX DOMUX1A |
| Aircraft | A400/H-SDE2E3FGHIJ4J5M1RWXY/LB1D1 |
Departure
| Time | 2026-05-04 20:27 |
|---|---|
| Airport | Stuttgart Airport (EDDS) |
Arrival
| Time | N/A |
|---|---|
| Airport | Düsseldorf Airport (EDDL) |
| Time | Latitude | Longitude | Altitude | Speed | Heading |
|---|---|---|---|---|---|
| 2026-05-04 20:14 | 48.68881 | 9.19360 | 1295 ft | 0 kts | 345° |
| 2026-05-04 20:19 | 48.68847 | 9.19374 | 1295 ft | 6 kts | 345° |
| 2026-05-04 20:20 | 48.68814 | 9.19371 | 1295 ft | 5 kts | 41° |
| 2026-05-04 20:20 | 48.68798 | 9.19338 | 1295 ft | 0 kts | 71° |
| 2026-05-04 20:22 | 48.68803 | 9.19363 | 1295 ft | 13 kts | 71° |
| 2026-05-04 20:22 | 48.68837 | 9.19541 | 1295 ft | 19 kts | 74° |
| 2026-05-04 20:22 | 48.68874 | 9.19738 | 1295 ft | 20 kts | 74° |
| 2026-05-04 20:22 | 48.68851 | 9.19889 | 1295 ft | 13 kts | 141° |
| 2026-05-04 20:23 | 48.68834 | 9.20013 | 1295 ft | 21 kts | 78° |
| 2026-05-04 20:23 | 48.68890 | 9.20318 | 1295 ft | 36 kts | 73° |
| 2026-05-04 20:23 | 48.68950 | 9.20626 | 1295 ft | 29 kts | 73° |
| 2026-05-04 20:23 | 48.69007 | 9.20909 | 1295 ft | 27 kts | 73° |
| 2026-05-04 20:24 | 48.69056 | 9.21176 | 1295 ft | 26 kts | 74° |
| 2026-05-04 20:24 | 48.69103 | 9.21430 | 1295 ft | 24 kts | 73° |
| 2026-05-04 20:24 | 48.69151 | 9.21674 | 1295 ft | 24 kts | 73° |
| 2026-05-04 20:24 | 48.69198 | 9.21913 | 1295 ft | 25 kts | 73° |
| 2026-05-04 20:25 | 48.69256 | 9.22212 | 1295 ft | 34 kts | 73° |
| 2026-05-04 20:25 | 48.69328 | 9.22587 | 1295 ft | 40 kts | 74° |
| 2026-05-04 20:25 | 48.69408 | 9.23008 | 1295 ft | 43 kts | 73° |
| 2026-05-04 20:25 | 48.69491 | 9.23457 | 1295 ft | 45 kts | 75° |
| 2026-05-04 20:26 | 48.69577 | 9.23913 | 1295 ft | 45 kts | 75° |
| 2026-05-04 20:26 | 48.69591 | 9.24204 | 1295 ft | 18 kts | 115° |
| 2026-05-04 20:26 | 48.69505 | 9.24314 | 1295 ft | 16 kts | 161° |
| 2026-05-04 20:26 | 48.69393 | 9.24284 | 1295 ft | 22 kts | 225° |
| 2026-05-04 20:27 | 48.69300 | 9.23889 | 1295 ft | 87 kts | 253° |
| 2026-05-04 20:27 | 48.69024 | 9.22415 | 1348 ft | 188 kts | 254° |
| 2026-05-04 20:27 | 48.68565 | 9.20312 | 1685 ft | 227 kts | 250° |
| 2026-05-04 20:27 | 48.67990 | 9.17971 | 2275 ft | 243 kts | 250° |
| 2026-05-04 20:28 | 48.67486 | 9.15831 | 2679 ft | 195 kts | 254° |
| 2026-05-04 20:28 | 48.67139 | 9.13688 | 3373 ft | 217 kts | 257° |
| 2026-05-04 20:28 | 48.66924 | 9.11415 | 4583 ft | 223 kts | 270° |
| 2026-05-04 20:28 | 48.67332 | 9.09051 | 5224 ft | 243 kts | 301° |
| 2026-05-04 20:29 | 48.68480 | 9.07179 | 5462 ft | 249 kts | 323° |
| 2026-05-04 20:29 | 48.68687 | 9.06960 | 5466 ft | 249 kts | 326° |